Aviation Digital Data Service (ADDS)

Output produced by METARs form (2026 UTC 27 August 2016)
found at http://aviationweather.gov/adds/metars/
 
METAR text: KSPB 271953Z AUTO VRB03KT 10SM CLR 24/12 A2992 RMK AO2 SLP132 T02440122
Conditions at: KSPB (SCAPPOOSE , OR, US) observed 1953 UTC 27 August 2016
Temperature: 24.4°C (76°F)
Dewpoint: 12.2°C (54°F) [RH = 47%]
Pressure (altimeter): 29.92 inches Hg (1013.3 mb)
[Sea-level pressure: 1013.2 mb]
Winds: variable direction winds at 3 MPH (3 knots; 1.6 m/s)
Visibility: 10 or more miles (16+ km)
Ceiling: at least 12,000 feet AGL
Clouds: sky clear below 12,000 feet AGL
Weather: automated observation with no human augmentation;
there may or may not be significant weather present at this time

METAR text: KSPB 271853Z AUTO VRB05KT 10SM CLR 23/12 A2993 RMK AO2 SLP134 T02280117
Conditions at: KSPB (SCAPPOOSE , OR, US) observed 1853 UTC 27 August 2016
Temperature: 22.8°C (73°F)
Dewpoint: 11.7°C (53°F) [RH = 50%]
Pressure (altimeter): 29.93 inches Hg (1013.6 mb)
[Sea-level pressure: 1013.4 mb]
Winds: variable direction winds at 6 MPH (5 knots; 2.6 m/s)
Visibility: 10 or more miles (16+ km)
Ceiling: at least 12,000 feet AGL
Clouds: sky clear below 12,000 feet AGL
Weather: automated observation with no human augmentation;
there may or may not be significant weather present at this time